sensor_id;sensor_type;location;lat;lon;timestamp;temperature;humidity
15481;DHT22;7842;50.904;6.670;2022-07-24T01:46:50;17.40;99.90
15481;DHT22;7842;50.904;6.670;2022-07-24T03:48:49;16.60;99.90
15481;DHT22;7842;50.904;6.670;2022-07-24T03:51:15;16.60;99.90
15481;DHT22;7842;50.904;6.670;2022-07-24T03:53:40;16.60;99.90
15481;DHT22;7842;50.904;6.670;2022-07-24T03:56:08;18.60;99.90
15481;DHT22;7842;50.904;6.670;2022-07-24T03:58:33;16.50;99.90
15481;DHT22;7842;50.904;6.670;2022-07-24T04:01:01;16.60;99.90
15481;DHT22;7842;50.904;6.670;2022-07-24T04:03:27;16.50;99.90
15481;DHT22;7842;50.904;6.670;2022-07-24T04:05:52;16.50;99.90
15481;DHT22;7842;50.904;6.670;2022-07-24T04:08:18;16.50;99.90
15481;DHT22;7842;50.904;6.670;2022-07-24T04:10:44;16.60;99.90
15481;DHT22;7842;50.904;6.670;2022-07-24T04:13:10;16.60;99.90
15481;DHT22;7842;50.904;6.670;2022-07-24T04:15:35;16.60;99.90
15481;DHT22;7842;50.904;6.670;2022-07-24T04:18:01;16.70;99.90
15481;DHT22;7842;50.904;6.670;2022-07-24T04:20:27;16.70;99.90
15481;DHT22;7842;50.904;6.670;2022-07-24T04:22:52;16.80;99.90
15481;DHT22;7842;50.904;6.670;2022-07-24T04:25:18;16.90;99.90
15481;DHT22;7842;50.904;6.670;2022-07-24T04:27:44;16.90;99.90
15481;DHT22;7842;50.904;6.670;2022-07-24T04:30:11;16.90;99.90
15481;DHT22;7842;50.904;6.670;2022-07-24T04:32:37;17.10;99.90
15481;DHT22;7842;50.904;6.670;2022-07-24T04:35:04;17.30;99.90
15481;DHT22;7842;50.904;6.670;2022-07-24T04:37:29;17.60;99.90
15481;DHT22;7842;50.904;6.670;2022-07-24T04:39:55;17.80;99.90
15481;DHT22;7842;50.904;6.670;2022-07-24T04:42:21;18.00;99.90
15481;DHT22;7842;50.904;6.670;2022-07-24T04:44:46;17.90;99.90
15481;DHT22;7842;50.904;6.670;2022-07-24T04:47:12;17.90;99.90
15481;DHT22;7842;50.904;6.670;2022-07-24T04:49:38;18.00;99.90
15481;DHT22;7842;50.904;6.670;2022-07-24T04:52:03;18.30;99.90
15481;DHT22;7842;50.904;6.670;2022-07-24T04:54:29;18.30;99.90
15481;DHT22;7842;50.904;6.670;2022-07-24T04:56:55;18.80;99.90
15481;DHT22;7842;50.904;6.670;2022-07-24T04:59:20;19.10;99.90
15481;DHT22;7842;50.904;6.670;2022-07-24T05:01:46;21.70;99.90
15481;DHT22;7842;50.904;6.670;2022-07-24T05:04:12;19.60;99.90
15481;DHT22;7842;50.904;6.670;2022-07-24T05:06:37;19.80;99.90
15481;DHT22;7842;50.904;6.670;2022-07-24T05:09:03;21.40;99.90
15481;DHT22;7842;50.904;6.670;2022-07-24T05:11:28;20.90;99.90
15481;DHT22;7842;50.904;6.670;2022-07-24T05:13:55;21.20;99.90
15481;DHT22;7842;50.904;6.670;2022-07-24T05:16:20;21.20;99.90
15481;DHT22;7842;50.904;6.670;2022-07-24T05:18:46;21.30;99.90
15481;DHT22;7842;50.904;6.670;2022-07-24T05:21:11;21.40;99.90
15481;DHT22;7842;50.904;6.670;2022-07-24T05:23:39;21.60;99.90
15481;DHT22;7842;50.904;6.670;2022-07-24T05:26:05;21.20;99.90
15481;DHT22;7842;50.904;6.670;2022-07-24T05:28:32;20.90;99.90
15481;DHT22;7842;50.904;6.670;2022-07-24T05:30:58;21.00;99.90
15481;DHT22;7842;50.904;6.670;2022-07-24T05:33:24;21.00;99.90
15481;DHT22;7842;50.904;6.670;2022-07-24T05:35:49;20.90;99.90
15481;DHT22;7842;50.904;6.670;2022-07-24T05:38:15;21.10;99.90
15481;DHT22;7842;50.904;6.670;2022-07-24T05:40:41;21.80;99.90
15481;DHT22;7842;50.904;6.670;2022-07-24T05:43:07;22.50;99.90
15481;DHT22;7842;50.904;6.670;2022-07-24T05:45:33;23.40;99.90
15481;DHT22;7842;50.904;6.670;2022-07-24T05:47:58;23.70;99.90
15481;DHT22;7842;50.904;6.670;2022-07-24T05:50:24;23.70;99.90
15481;DHT22;7842;50.904;6.670;2022-07-24T05:52:49;23.70;99.90
15481;DHT22;7842;50.904;6.670;2022-07-24T05:55:15;23.70;99.90
15481;DHT22;7842;50.904;6.670;2022-07-24T05:57:41;24.10;99.90
15481;DHT22;7842;50.904;6.670;2022-07-24T06:00:07;25.60;99.90
15481;DHT22;7842;50.904;6.670;2022-07-24T06:02:34;24.90;99.90
15481;DHT22;7842;50.904;6.670;2022-07-24T06:04:59;25.90;99.90
15481;DHT22;7842;50.904;6.670;2022-07-24T06:07:25;26.20;99.90
15481;DHT22;7842;50.904;6.670;2022-07-24T06:09:51;26.00;99.90
15481;DHT22;7842;50.904;6.670;2022-07-24T06:12:17;26.10;99.90
15481;DHT22;7842;50.904;6.670;2022-07-24T06:14:43;26.30;99.90
15481;DHT22;7842;50.904;6.670;2022-07-24T06:17:09;26.20;99.90
15481;DHT22;7842;50.904;6.670;2022-07-24T06:19:34;26.60;99.90
15481;DHT22;7842;50.904;6.670;2022-07-24T06:22:00;27.80;99.90
15481;DHT22;7842;50.904;6.670;2022-07-24T06:24:25;28.20;99.90
15481;DHT22;7842;50.904;6.670;2022-07-24T06:26:51;28.50;99.90
15481;DHT22;7842;50.904;6.670;2022-07-24T06:29:17;28.90;99.90
15481;DHT22;7842;50.904;6.670;2022-07-24T06:31:42;28.90;99.90
15481;DHT22;7842;50.904;6.670;2022-07-24T06:34:08;29.30;99.90
15481;DHT22;7842;50.904;6.670;2022-07-24T06:36:34;29.50;99.90
15481;DHT22;7842;50.904;6.670;2022-07-24T06:38:59;29.30;99.90
15481;DHT22;7842;50.904;6.670;2022-07-24T06:41:25;29.10;99.90
15481;DHT22;7842;50.904;6.670;2022-07-24T06:43:50;28.90;99.90
15481;DHT22;7842;50.904;6.670;2022-07-24T06:46:16;28.70;99.90
15481;DHT22;7842;50.904;6.670;2022-07-24T06:48:42;28.30;99.90
15481;DHT22;7842;50.904;6.670;2022-07-24T06:51:07;28.60;99.90
15481;DHT22;7842;50.904;6.670;2022-07-24T06:53:33;28.70;99.90
15481;DHT22;7842;50.904;6.670;2022-07-24T06:56:00;28.50;99.90
15481;DHT22;7842;50.904;6.670;2022-07-24T06:58:26;28.10;99.90
15481;DHT22;7842;50.904;6.670;2022-07-24T07:00:52;27.50;99.90
15481;DHT22;7842;50.904;6.670;2022-07-24T07:03:17;27.10;99.90
15481;DHT22;7842;50.904;6.670;2022-07-24T07:05:44;26.70;99.90
15481;DHT22;7842;50.904;6.670;2022-07-24T07:08:09;26.40;99.90
15481;DHT22;7842;50.904;6.670;2022-07-24T07:10:35;26.60;99.90
15481;DHT22;7842;50.904;6.670;2022-07-24T07:13:01;26.60;99.90
15481;DHT22;7842;50.904;6.670;2022-07-24T07:15:26;26.60;99.90
15481;DHT22;7842;50.904;6.670;2022-07-24T07:17:52;26.70;99.90
15481;DHT22;7842;50.904;6.670;2022-07-24T07:20:18;26.30;99.90
15481;DHT22;7842;50.904;6.670;2022-07-24T07:22:44;25.50;99.90
15481;DHT22;7842;50.904;6.670;2022-07-24T07:25:10;25.40;99.90
15481;DHT22;7842;50.904;6.670;2022-07-24T07:27:37;25.40;99.90
15481;DHT22;7842;50.904;6.670;2022-07-24T07:30:04;25.10;99.90
15481;DHT22;7842;50.904;6.670;2022-07-24T07:32:30;25.00;99.90
15481;DHT22;7842;50.904;6.670;2022-07-24T07:34:55;24.80;99.90
15481;DHT22;7842;50.904;6.670;2022-07-24T07:37:21;24.80;99.90
15481;DHT22;7842;50.904;6.670;2022-07-24T07:39:47;24.80;99.90
15481;DHT22;7842;50.904;6.670;2022-07-24T07:42:13;25.00;99.90
15481;DHT22;7842;50.904;6.670;2022-07-24T07:44:38;25.00;99.90
15481;DHT22;7842;50.904;6.670;2022-07-24T07:47:04;25.20;99.90
15481;DHT22;7842;50.904;6.670;2022-07-24T07:49:29;25.40;99.90
15481;DHT22;7842;50.904;6.670;2022-07-24T07:51:55;25.60;99.90
15481;DHT22;7842;50.904;6.670;2022-07-24T09:30:04;27.10;99.90
15481;DHT22;7842;50.904;6.670;2022-07-24T10:12:17;28.10;99.90
15481;DHT22;7842;50.904;6.670;2022-07-24T10:40:02;29.60;99.90
15481;DHT22;7842;50.904;6.670;2022-07-24T11:44:24;29.60;99.90
15481;DHT22;7842;50.904;6.670;2022-07-24T12:11:22;30.40;99.90
15481;DHT22;7842;50.904;6.670;2022-07-24T12:34:03;30.60;99.90
15481;DHT22;7842;50.904;6.670;2022-07-24T12:36:30;30.60;99.90
15481;DHT22;7842;50.904;6.670;2022-07-24T12:41:27;31.00;99.90
15481;DHT22;7842;50.904;6.670;2022-07-24T12:43:53;31.20;99.90
15481;DHT22;7842;50.904;6.670;2022-07-24T12:46:22;31.30;98.40
15481;DHT22;7842;50.904;6.670;2022-07-24T12:49:01;31.50;99.70
15481;DHT22;7842;50.904;6.670;2022-07-24T13:06:48;30.60;99.90
15481;DHT22;7842;50.904;6.670;2022-07-24T13:11:42;30.50;99.90
15481;DHT22;7842;50.904;6.670;2022-07-24T13:21:28;30.80;94.20
15481;DHT22;7842;50.904;6.670;2022-07-24T13:28:48;31.20;94.30
15481;DHT22;7842;50.904;6.670;2022-07-24T13:31:14;31.20;94.60
15481;DHT22;7842;50.904;6.670;2022-07-24T13:36:06;31.40;93.80
15481;DHT22;7842;50.904;6.670;2022-07-24T13:50:45;31.60;95.50
15481;DHT22;7842;50.904;6.670;2022-07-24T13:53:11;31.60;93.70
15481;DHT22;7842;50.904;6.670;2022-07-24T14:05:24;32.20;90.50
15481;DHT22;7842;50.904;6.670;2022-07-24T14:17:38;31.90;91.90
15481;DHT22;7842;50.904;6.670;2022-07-24T14:22:30;32.10;93.10
15481;DHT22;7842;50.904;6.670;2022-07-24T14:56:35;33.30;87.00
15481;DHT22;7842;50.904;6.670;2022-07-24T14:59:02;33.20;88.00
15481;DHT22;7842;50.904;6.670;2022-07-24T15:01:28;32.60;89.00
15481;DHT22;7842;50.904;6.670;2022-07-24T15:11:12;32.50;89.50
15481;DHT22;7842;50.904;6.670;2022-07-24T15:13:38;32.60;90.00
15481;DHT22;7842;50.904;6.670;2022-07-24T15:16:06;32.50;90.30
15481;DHT22;7842;50.904;6.670;2022-07-24T15:18:33;32.60;90.00
15481;DHT22;7842;50.904;6.670;2022-07-24T15:25:51;32.70;90.20
15481;DHT22;7842;50.904;6.670;2022-07-24T15:28:17;32.70;88.80
15481;DHT22;7842;50.904;6.670;2022-07-24T15:30:43;32.80;89.90
15481;DHT22;7842;50.904;6.670;2022-07-24T15:35:34;32.70;88.30
15481;DHT22;7842;50.904;6.670;2022-07-24T19:05:16;29.80;99.30
15481;DHT22;7842;50.904;6.670;2022-07-24T19:07:42;29.80;99.60
15481;DHT22;7842;50.904;6.670;2022-07-24T19:10:11;29.60;99.90
15481;DHT22;7842;50.904;6.670;2022-07-24T19:15:05;29.30;99.90
15481;DHT22;7842;50.904;6.670;2022-07-24T19:17:34;29.20;99.90
15481;DHT22;7842;50.904;6.670;2022-07-24T19:20:04;29.30;99.90
15481;DHT22;7842;50.904;6.670;2022-07-24T19:22:30;29.10;99.90
15481;DHT22;7842;50.904;6.670;2022-07-24T19:27:27;29.00;99.90
15481;DHT22;7842;50.904;6.670;2022-07-24T19:29:53;29.00;99.90
15481;DHT22;7842;50.904;6.670;2022-07-24T19:32:22;29.00;99.90
15481;DHT22;7842;50.904;6.670;2022-07-24T19:34:48;28.90;99.90
15481;DHT22;7842;50.904;6.670;2022-07-24T19:37:16;28.90;99.90
15481;DHT22;7842;50.904;6.670;2022-07-24T19:39:42;28.90;99.90
15481;DHT22;7842;50.904;6.670;2022-07-24T19:42:08;28.70;99.90
15481;DHT22;7842;50.904;6.670;2022-07-24T19:44:33;28.50;99.90
15481;DHT22;7842;50.904;6.670;2022-07-24T19:46:59;28.40;99.90
15481;DHT22;7842;50.904;6.670;2022-07-24T19:49:25;28.40;99.90
15481;DHT22;7842;50.904;6.670;2022-07-24T19:51:50;28.30;99.90
15481;DHT22;7842;50.904;6.670;2022-07-24T19:54:19;28.30;99.90
15481;DHT22;7842;50.904;6.670;2022-07-24T19:56:46;28.20;99.90
15481;DHT22;7842;50.904;6.670;2022-07-24T19:59:12;28.30;99.90
15481;DHT22;7842;50.904;6.670;2022-07-24T20:01:38;28.20;99.90
15481;DHT22;7842;50.904;6.670;2022-07-24T20:04:07;28.10;99.90
15481;DHT22;7842;50.904;6.670;2022-07-24T20:09:01;27.70;99.90
15481;DHT22;7842;50.904;6.670;2022-07-24T20:11:27;27.60;99.90
15481;DHT22;7842;50.904;6.670;2022-07-24T20:16:21;27.50;99.90
15481;DHT22;7842;50.904;6.670;2022-07-24T20:18:46;27.50;99.90
15481;DHT22;7842;50.904;6.670;2022-07-24T20:21:12;27.50;99.90
15481;DHT22;7842;50.904;6.670;2022-07-24T20:23:39;27.50;99.90
15481;DHT22;7842;50.904;6.670;2022-07-24T20:26:04;27.50;99.90
15481;DHT22;7842;50.904;6.670;2022-07-24T20:28:32;27.40;99.90
15481;DHT22;7842;50.904;6.670;2022-07-24T20:30:57;27.20;99.90
15481;DHT22;7842;50.904;6.670;2022-07-24T20:33:23;27.10;99.90
15481;DHT22;7842;50.904;6.670;2022-07-24T20:35:49;27.10;99.90
15481;DHT22;7842;50.904;6.670;2022-07-24T20:38:14;27.10;99.90
15481;DHT22;7842;50.904;6.670;2022-07-24T20:40:40;27.10;99.90
15481;DHT22;7842;50.904;6.670;2022-07-24T20:45:32;26.90;99.90
15481;DHT22;7842;50.904;6.670;2022-07-24T20:47:58;26.90;99.90
15481;DHT22;7842;50.904;6.670;2022-07-24T20:50:24;26.80;99.90
15481;DHT22;7842;50.904;6.670;2022-07-24T20:52:49;26.80;99.90
15481;DHT22;7842;50.904;6.670;2022-07-24T20:55:15;26.80;99.90
15481;DHT22;7842;50.904;6.670;2022-07-24T20:57:41;26.70;99.90
15481;DHT22;7842;50.904;6.670;2022-07-24T21:02:33;26.60;99.90
15481;DHT22;7842;50.904;6.670;2022-07-24T21:04:58;26.50;99.90
15481;DHT22;7842;50.904;6.670;2022-07-24T21:07:24;26.50;99.90
15481;DHT22;7842;50.904;6.670;2022-07-24T21:09:50;26.50;99.90
15481;DHT22;7842;50.904;6.670;2022-07-24T21:12:15;26.40;99.90
15481;DHT22;7842;50.904;6.670;2022-07-24T21:14:41;26.30;99.90
15481;DHT22;7842;50.904;6.670;2022-07-24T21:17:06;26.30;99.90
15481;DHT22;7842;50.904;6.670;2022-07-24T21:19:32;26.10;99.90
15481;DHT22;7842;50.904;6.670;2022-07-24T21:21:58;26.10;99.90
15481;DHT22;7842;50.904;6.670;2022-07-24T21:24:24;26.00;99.90
15481;DHT22;7842;50.904;6.670;2022-07-24T21:26:49;25.90;99.90
15481;DHT22;7842;50.904;6.670;2022-07-24T21:31:48;25.50;99.90
15481;DHT22;7842;50.904;6.670;2022-07-24T21:34:14;25.50;99.90
15481;DHT22;7842;50.904;6.670;2022-07-24T21:36:40;25.50;99.90
15481;DHT22;7842;50.904;6.670;2022-07-24T21:39:06;25.60;99.90
15481;DHT22;7842;50.904;6.670;2022-07-24T21:41:32;25.60;99.90
15481;DHT22;7842;50.904;6.670;2022-07-24T21:43:57;25.50;99.90
15481;DHT22;7842;50.904;6.670;2022-07-24T21:46:23;25.50;99.90
15481;DHT22;7842;50.904;6.670;2022-07-24T21:48:49;25.50;99.90
15481;DHT22;7842;50.904;6.670;2022-07-24T21:51:15;26.00;99.90
15481;DHT22;7842;50.904;6.670;2022-07-24T21:53:40;25.20;99.90
15481;DHT22;7842;50.904;6.670;2022-07-24T21:56:06;25.10;99.90
15481;DHT22;7842;50.904;6.670;2022-07-24T21:58:34;24.90;99.90
15481;DHT22;7842;50.904;6.670;2022-07-24T22:01:00;24.80;99.90
15481;DHT22;7842;50.904;6.670;2022-07-24T22:03:25;24.60;99.90
15481;DHT22;7842;50.904;6.670;2022-07-24T22:05:51;24.60;99.90
15481;DHT22;7842;50.904;6.670;2022-07-24T22:08:17;24.60;99.90
15481;DHT22;7842;50.904;6.670;2022-07-24T22:10:43;24.60;99.90
15481;DHT22;7842;50.904;6.670;2022-07-24T22:13:08;24.70;99.90
15481;DHT22;7842;50.904;6.670;2022-07-24T22:15:34;24.70;99.90
15481;DHT22;7842;50.904;6.670;2022-07-24T22:18:00;24.60;99.90
15481;DHT22;7842;50.904;6.670;2022-07-24T22:20:29;24.40;99.90
15481;DHT22;7842;50.904;6.670;2022-07-24T22:22:55;24.30;99.90
15481;DHT22;7842;50.904;6.670;2022-07-24T22:25:21;24.00;99.90
15481;DHT22;7842;50.904;6.670;2022-07-24T22:27:47;24.00;99.90
15481;DHT22;7842;50.904;6.670;2022-07-24T22:30:14;23.70;99.90
15481;DHT22;7842;50.904;6.670;2022-07-24T22:32:40;23.80;99.90
15481;DHT22;7842;50.904;6.670;2022-07-24T22:35:06;23.70;99.90
15481;DHT22;7842;50.904;6.670;2022-07-24T22:37:35;23.70;99.90
15481;DHT22;7842;50.904;6.670;2022-07-24T22:42:30;23.60;99.90
15481;DHT22;7842;50.904;6.670;2022-07-24T22:44:56;23.50;99.90
15481;DHT22;7842;50.904;6.670;2022-07-24T22:47:22;23.40;99.90
15481;DHT22;7842;50.904;6.670;2022-07-24T22:49:49;23.10;99.90
15481;DHT22;7842;50.904;6.670;2022-07-24T22:52:14;23.00;99.90
15481;DHT22;7842;50.904;6.670;2022-07-24T22:54:42;22.80;99.90
15481;DHT22;7842;50.904;6.670;2022-07-24T22:57:09;22.80;99.90
15481;DHT22;7842;50.904;6.670;2022-07-24T22:59:36;22.80;99.90
15481;DHT22;7842;50.904;6.670;2022-07-24T23:02:02;22.60;99.90
15481;DHT22;7842;50.904;6.670;2022-07-24T23:04:28;22.60;99.90
15481;DHT22;7842;50.904;6.670;2022-07-24T23:06:54;22.60;99.90
15481;DHT22;7842;50.904;6.670;2022-07-24T23:09:20;22.60;99.90
15481;DHT22;7842;50.904;6.670;2022-07-24T23:11:45;22.60;99.90
15481;DHT22;7842;50.904;6.670;2022-07-24T23:14:11;22.60;99.90
15481;DHT22;7842;50.904;6.670;2022-07-24T23:16:37;22.50;99.90
15481;DHT22;7842;50.904;6.670;2022-07-24T23:19:02;22.40;99.90
15481;DHT22;7842;50.904;6.670;2022-07-24T23:21:28;22.30;99.90
15481;DHT22;7842;50.904;6.670;2022-07-24T23:23:53;22.20;99.90
15481;DHT22;7842;50.904;6.670;2022-07-24T23:26:19;22.20;99.90
15481;DHT22;7842;50.904;6.670;2022-07-24T23:28:45;22.00;99.90
15481;DHT22;7842;50.904;6.670;2022-07-24T23:31:10;21.20;99.90
15481;DHT22;7842;50.904;6.670;2022-07-24T23:33:36;21.90;99.90
15481;DHT22;7842;50.904;6.670;2022-07-24T23:36:01;21.80;99.90
15481;DHT22;7842;50.904;6.670;2022-07-24T23:38:27;21.80;99.90
15481;DHT22;7842;50.904;6.670;2022-07-24T23:40:53;22.40;99.90
15481;DHT22;7842;50.904;6.670;2022-07-24T23:43:18;21.80;99.90
15481;DHT22;7842;50.904;6.670;2022-07-24T23:45:44;21.70;99.90
15481;DHT22;7842;50.904;6.670;2022-07-24T23:48:10;21.70;99.90
15481;DHT22;7842;50.904;6.670;2022-07-24T23:50:36;21.50;99.90
15481;DHT22;7842;50.904;6.670;2022-07-24T23:53:01;21.40;99.90
15481;DHT22;7842;50.904;6.670;2022-07-24T23:55:28;21.40;99.90
15481;DHT22;7842;50.904;6.670;2022-07-24T23:57:53;21.40;99.90
